Time;durP1;ratioP1;P1;durP2;ratioP2;P2;SDS_P1;SDS_P2;PMS_P1;PMS_P2;Temp;Humidity;BMP_temperature;BMP_pressure;BME280_temperature;BME280_humidity;BME280_pressure;Samples;Min_cycle;Max_cycle;Signal;HPM_P1;HPM_P2
2021/07/31 00:01:16;;;;;;;;;;;15.00;99.90;;;;;;5132929;27;20438;-86
2021/07/31 00:03:42;;;;;;;;;;;14.90;99.90;;;;;;5150096;27;19969;-87
2021/07/31 00:06:08;;;;;;;;;;;14.90;99.90;;;;;;5149644;27;20335;-86
2021/07/31 00:08:33;;;;;;;;;;;15.00;99.90;;;;;;5149063;27;20289;-86
2021/07/31 00:10:59;;;;;;;;;;;14.90;99.90;;;;;;5132376;27;20021;-86
2021/07/31 00:13:25;;;;;;;;;;;14.90;99.90;;;;;;5149551;27;19926;-86
2021/07/31 00:15:51;;;;;;;;;;;14.90;99.90;;;;;;5149451;27;19926;-87
2021/07/31 00:18:17;;;;;;;;;;;14.90;99.90;;;;;;5148790;27;19926;-86
2021/07/31 00:20:42;;;;;;;;;;;14.90;99.90;;;;;;5149517;27;19919;-86
2021/07/31 00:23:08;;;;;;;;;;;14.80;99.90;;;;;;5167807;27;19925;-88
2021/07/31 00:25:34;;;;;;;;;;;14.90;99.90;;;;;;5149585;27;19929;-86
2021/07/31 00:28:00;;;;;;;;;;;14.90;99.90;;;;;;5130113;27;19927;-87
2021/07/31 00:30:27;;;;;;;;;;;14.90;99.90;;;;;;5127674;27;19927;-86
2021/07/31 00:32:54;;;;;;;;;;;14.90;99.90;;;;;;5128829;27;19964;-86
2021/07/31 00:35:19;;;;;;;;;;;15.00;99.90;;;;;;5147148;27;19930;-86
2021/07/31 00:37:45;;;;;;;;;;;14.90;99.90;;;;;;5126274;27;20327;-87
2021/07/31 00:40:11;;;;;;;;;;;15.00;99.90;;;;;;5116634;27;19919;-86
2021/07/31 00:42:38;;;;;;;;;;;15.00;99.90;;;;;;5148953;27;19926;-86
2021/07/31 00:45:04;;;;;;;;;;;15.10;99.90;;;;;;5138026;27;19929;-86
2021/07/31 00:47:29;;;;;;;;;;;15.00;99.90;;;;;;5141543;27;20027;-86
2021/07/31 00:49:55;;;;;;;;;;;15.00;99.90;;;;;;5129494;27;19967;-86
2021/07/31 00:52:21;;;;;;;;;;;15.10;99.90;;;;;;5139825;27;20561;-86
2021/07/31 00:54:47;;;;;;;;;;;15.00;99.90;;;;;;5141172;27;20664;-86
2021/07/31 00:57:14;;;;;;;;;;;15.00;99.90;;;;;;5128075;27;20326;-86
2021/07/31 00:59:40;;;;;;;;;;;15.10;99.90;;;;;;5127487;27;19926;-86
2021/07/31 01:02:05;;;;;;;;;;;15.10;99.90;;;;;;5128920;27;20073;-86
2021/07/31 01:04:31;;;;;;;;;;;15.10;99.90;;;;;;5167254;27;19922;-86
2021/07/31 01:06:57;;;;;;;;;;;15.10;99.90;;;;;;5131439;27;19923;-85
2021/07/31 01:09:23;;;;;;;;;;;15.20;99.90;;;;;;5135912;27;19982;-85
2021/07/31 01:11:48;;;;;;;;;;;15.20;99.90;;;;;;5143462;27;19923;-86
2021/07/31 01:14:14;;;;;;;;;;;15.20;99.90;;;;;;5148618;27;19923;-86
2021/07/31 01:16:40;;;;;;;;;;;15.20;99.90;;;;;;5126620;27;19957;-86
2021/07/31 01:19:05;;;;;;;;;;;15.20;99.90;;;;;;5128077;27;19926;-86
2021/07/31 01:21:35;;;;;;;;;;;15.30;99.90;;;;;;5127194;27;19923;-86
2021/07/31 01:24:01;;;;;;;;;;;15.30;99.90;;;;;;5127829;27;19970;-86
2021/07/31 01:26:27;;;;;;;;;;;15.30;99.90;;;;;;5128018;27;20458;-86
2021/07/31 01:28:53;;;;;;;;;;;15.30;99.90;;;;;;5127788;27;19950;-86
2021/07/31 01:31:19;;;;;;;;;;;15.30;99.90;;;;;;5145895;27;20305;-86
2021/07/31 01:33:44;;;;;;;;;;;15.30;99.90;;;;;;5111370;27;19926;-86
2021/07/31 01:36:10;;;;;;;;;;;15.20;99.90;;;;;;5114877;27;19919;-86
2021/07/31 01:38:36;;;;;;;;;;;15.20;99.90;;;;;;5097792;27;19930;-86
2021/07/31 01:41:03;;;;;;;;;;;15.20;99.90;;;;;;5131191;27;20267;-86
2021/07/31 01:43:29;;;;;;;;;;;15.20;99.90;;;;;;5114539;27;19926;-86
2021/07/31 01:45:55;;;;;;;;;;;15.20;99.90;;;;;;5130911;27;20378;-85
2021/07/31 01:48:20;;;;;;;;;;;15.20;99.90;;;;;;5114283;27;19935;-85
2021/07/31 01:50:46;;;;;;;;;;;15.30;99.90;;;;;;5114115;27;19949;-86
2021/07/31 01:53:11;;;;;;;;;;;15.20;99.90;;;;;;5096701;27;19927;-86
2021/07/31 01:55:38;;;;;;;;;;;15.20;99.90;;;;;;5131415;27;19970;-86
2021/07/31 01:58:03;;;;;;;;;;;15.20;99.90;;;;;;5114209;27;19981;-86
2021/07/31 02:00:29;;;;;;;;;;;15.20;99.90;;;;;;5149854;27;19923;-86
2021/07/31 02:02:55;;;;;;;;;;;15.20;99.90;;;;;;5113426;27;19919;-86
2021/07/31 02:05:20;;;;;;;;;;;15.30;99.90;;;;;;5149934;27;20013;-85
2021/07/31 02:07:46;;;;;;;;;;;15.30;99.90;;;;;;5114095;27;20374;-85
2021/07/31 02:10:12;;;;;;;;;;;15.20;99.90;;;;;;5113914;27;19977;-86
2021/07/31 02:12:38;;;;;;;;;;;15.20;99.90;;;;;;5130502;27;20434;-86
2021/07/31 02:15:04;;;;;;;;;;;15.20;99.90;;;;;;5130985;27;19926;-86
2021/07/31 02:17:31;;;;;;;;;;;15.20;99.90;;;;;;5131046;27;19922;-86
2021/07/31 02:19:57;;;;;;;;;;;15.20;99.90;;;;;;5113691;27;19991;-86
2021/07/31 02:22:23;;;;;;;;;;;15.20;99.90;;;;;;5148930;27;19923;-86
2021/07/31 02:24:48;;;;;;;;;;;15.10;99.90;;;;;;5149513;27;20389;-86
2021/07/31 02:27:14;;;;;;;;;;;15.20;99.90;;;;;;5130804;27;19923;-86
2021/07/31 02:29:40;;;;;;;;;;;15.20;99.90;;;;;;5124962;27;19924;-86
2021/07/31 02:32:06;;;;;;;;;;;15.20;99.90;;;;;;5130168;27;19923;-86
2021/07/31 02:34:31;;;;;;;;;;;15.20;99.90;;;;;;5147511;27;19923;-86
2021/07/31 02:36:57;;;;;;;;;;;15.20;99.90;;;;;;5143796;27;19929;-85
2021/07/31 02:39:23;;;;;;;;;;;15.30;99.90;;;;;;5113134;27;19949;-86
2021/07/31 02:41:48;;;;;;;;;;;15.30;99.90;;;;;;5130327;27;19918;-85
2021/07/31 02:44:14;;;;;;;;;;;15.30;99.90;;;;;;5112756;27;20373;-86
2021/07/31 02:46:40;;;;;;;;;;;15.20;99.90;;;;;;5113158;27;19926;-86
2021/07/31 02:49:05;;;;;;;;;;;15.30;99.90;;;;;;5112716;27;20501;-86
2021/07/31 02:51:31;;;;;;;;;;;15.30;99.90;;;;;;5114739;27;19919;-86
2021/07/31 02:53:57;;;;;;;;;;;15.30;99.90;;;;;;5129666;27;19934;-86
2021/07/31 02:56:23;;;;;;;;;;;15.30;99.90;;;;;;5149011;27;20032;-87
2021/07/31 02:58:49;;;;;;;;;;;15.40;99.90;;;;;;5130233;27;19944;-86
2021/07/31 03:01:15;;;;;;;;;;;15.30;99.90;;;;;;5148591;27;19919;-86
2021/07/31 03:03:41;;;;;;;;;;;15.30;99.90;;;;;;5146932;27;19919;-85
2021/07/31 03:06:08;;;;;;;;;;;15.30;99.90;;;;;;5130204;27;20377;-85
2021/07/31 03:08:33;;;;;;;;;;;15.40;99.90;;;;;;5130242;27;19923;-86
2021/07/31 03:11:00;;;;;;;;;;;15.40;99.90;;;;;;5129983;27;19923;-86
2021/07/31 03:13:26;;;;;;;;;;;15.40;99.90;;;;;;5146060;27;19934;-86
2021/07/31 03:15:52;;;;;;;;;;;15.40;99.90;;;;;;5149822;27;20257;-85
2021/07/31 03:18:21;;;;;;;;;;;15.40;99.90;;;;;;5169194;27;19950;-85
2021/07/31 03:20:47;;;;;;;;;;;15.40;99.90;;;;;;5133130;27;19930;-85
2021/07/31 03:23:14;;;;;;;;;;;15.50;99.90;;;;;;5140069;27;20017;-85
2021/07/31 03:25:39;;;;;;;;;;;15.50;99.90;;;;;;5129006;27;19962;-86
2021/07/31 03:28:05;;;;;;;;;;;15.40;99.90;;;;;;5129425;27;19963;-85
2021/07/31 03:30:45;;;;;;;;;;;15.40;99.90;;;;;;5148182;27;20127;-85
2021/07/31 03:33:11;;;;;;;;;;;15.40;99.90;;;;;;5148074;27;19919;-86
2021/07/31 03:35:37;;;;;;;;;;;15.40;99.90;;;;;;5128847;27;19923;-85
2021/07/31 03:38:03;;;;;;;;;;;15.40;99.90;;;;;;5129256;27;19919;-85
2021/07/31 03:40:29;;;;;;;;;;;15.40;99.90;;;;;;5129474;27;19925;-85
2021/07/31 03:42:55;;;;;;;;;;;15.40;99.90;;;;;;5112061;27;19919;-85
2021/07/31 03:45:20;;;;;;;;;;;15.40;99.90;;;;;;5128742;27;20374;-85
2021/07/31 03:47:46;;;;;;;;;;;15.30;99.90;;;;;;5129113;27;19927;-85
2021/07/31 03:50:12;;;;;;;;;;;15.30;99.90;;;;;;5128835;27;19923;-85
2021/07/31 03:52:37;;;;;;;;;;;15.40;99.90;;;;;;5162378;27;20310;-85
2021/07/31 03:55:07;;;;;;;;;;;15.30;99.90;;;;;;5133024;27;19975;-85
2021/07/31 03:57:54;;;;;;;;;;;15.30;99.90;;;;;;5123921;27;19934;-85
2021/07/31 04:00:19;;;;;;;;;;;15.30;99.90;;;;;;5132653;27;20289;-85
2021/07/31 04:02:45;;;;;;;;;;;15.30;99.90;;;;;;5132423;27;20408;-85
2021/07/31 04:05:11;;;;;;;;;;;15.30;99.90;;;;;;5132550;27;19922;-85
2021/07/31 04:07:36;;;;;;;;;;;15.20;99.90;;;;;;5131576;27;19922;-86
2021/07/31 04:10:02;;;;;;;;;;;15.30;99.90;;;;;;5149442;27;19933;-85
2021/07/31 04:12:28;;;;;;;;;;;15.30;99.90;;;;;;5149390;27;20048;-85
2021/07/31 04:14:53;;;;;;;;;;;15.30;99.90;;;;;;5132397;27;20418;-86
2021/07/31 04:17:25;;;;;;;;;;;15.20;99.90;;;;;;5128269;27;19930;-85
2021/07/31 04:19:51;;;;;;;;;;;15.30;99.90;;;;;;5111239;27;19923;-85
2021/07/31 04:22:17;;;;;;;;;;;15.20;99.90;;;;;;5111935;27;19919;-85
2021/07/31 04:24:43;;;;;;;;;;;15.20;99.90;;;;;;5128444;27;20107;-86
2021/07/31 04:27:09;;;;;;;;;;;15.20;99.90;;;;;;5127759;27;19968;-86
2021/07/31 04:29:35;;;;;;;;;;;15.10;99.90;;;;;;5128404;27;19923;-85
2021/07/31 04:32:00;;;;;;;;;;;15.20;99.90;;;;;;5147176;27;20336;-85
2021/07/31 04:34:30;;;;;;;;;;;15.10;99.90;;;;;;5128941;27;19919;-85
2021/07/31 04:36:56;;;;;;;;;;;15.20;99.90;;;;;;5127756;27;19938;-85
2021/07/31 04:39:21;;;;;;;;;;;15.20;99.90;;;;;;5111573;27;20133;-86
2021/07/31 04:41:47;;;;;;;;;;;15.20;99.90;;;;;;5111252;27;20556;-85
2021/07/31 04:44:13;;;;;;;;;;;15.20;99.90;;;;;;5128704;27;19919;-85
2021/07/31 04:46:38;;;;;;;;;;;15.20;99.90;;;;;;5111283;27;19991;-85
2021/07/31 04:49:04;;;;;;;;;;;15.20;99.90;;;;;;5124334;28;19977;-86
2021/07/31 04:51:30;;;;;;;;;;;15.20;99.90;;;;;;5128089;27;19927;-86
2021/07/31 04:53:55;;;;;;;;;;;15.20;99.90;;;;;;5107810;28;19930;-85
2021/07/31 04:56:21;;;;;;;;;;;15.20;99.90;;;;;;5108153;28;20297;-86
2021/07/31 04:58:47;;;;;;;;;;;15.20;99.90;;;;;;5107202;28;19928;-86
2021/07/31 05:01:13;;;;;;;;;;;15.20;99.90;;;;;;5114817;28;19923;-86
2021/07/31 05:03:39;;;;;;;;;;;15.20;99.90;;;;;;5091224;28;19965;-85
2021/07/31 05:06:08;;;;;;;;;;;15.10;99.90;;;;;;5124441;27;20333;-86
2021/07/31 05:08:33;;;;;;;;;;;15.10;99.90;;;;;;5124477;27;20170;-85
2021/07/31 05:11:04;;;;;;;;;;;15.20;99.90;;;;;;5112047;27;19961;-86
2021/07/31 05:13:30;;;;;;;;;;;15.20;99.90;;;;;;5144919;27;19929;-86
2021/07/31 05:15:55;;;;;;;;;;;15.30;99.90;;;;;;5149647;27;19919;-85
2021/07/31 05:18:21;;;;;;;;;;;15.30;99.90;;;;;;5120089;27;19929;-85
2021/07/31 05:20:46;;;;;;;;;;;15.30;99.90;;;;;;5128371;27;19923;-86
2021/07/31 05:23:13;;;;;;;;;;;15.40;99.90;;;;;;5111294;27;20375;-86
2021/07/31 05:25:40;;;;;;;;;;;15.40;99.90;;;;;;5128700;27;20263;-85
2021/07/31 05:28:06;;;;;;;;;;;15.30;99.90;;;;;;5127887;27;19919;-86
2021/07/31 05:30:31;;;;;;;;;;;15.20;99.90;;;;;;5111527;27;19930;-86
2021/07/31 05:32:57;;;;;;;;;;;15.20;99.90;;;;;;5111132;27;20688;-86
2021/07/31 05:35:23;;;;;;;;;;;15.20;99.90;;;;;;5128720;27;20011;-86
2021/07/31 05:37:48;;;;;;;;;;;15.20;99.90;;;;;;5129251;27;19973;-86
2021/07/31 05:40:14;;;;;;;;;;;15.30;99.90;;;;;;5110865;27;20014;-86
2021/07/31 05:42:40;;;;;;;;;;;15.30;99.90;;;;;;5111083;27;19923;-86
2021/07/31 05:45:06;;;;;;;;;;;15.30;99.90;;;;;;5128461;27;20010;-86
2021/07/31 05:47:32;;;;;;;;;;;15.40;99.90;;;;;;5127935;27;20025;-86
2021/07/31 05:49:59;;;;;;;;;;;15.40;99.90;;;;;;5128792;27;19930;-86
2021/07/31 05:52:28;;;;;;;;;;;15.40;99.90;;;;;;5127753;27;19919;-86
2021/07/31 05:54:57;;;;;;;;;;;15.50;99.90;;;;;;5127980;27;19959;-86
2021/07/31 05:57:23;;;;;;;;;;;15.50;99.90;;;;;;5128232;27;19919;-85
2021/07/31 05:59:50;;;;;;;;;;;15.50;99.90;;;;;;5128698;27;19927;-85
2021/07/31 06:02:15;;;;;;;;;;;15.50;99.90;;;;;;5127663;27;20400;-86
2021/07/31 06:04:41;;;;;;;;;;;15.40;99.90;;;;;;5111187;27;20450;-85
2021/07/31 06:07:08;;;;;;;;;;;15.40;99.90;;;;;;5128814;27;19924;-85
2021/07/31 06:09:34;;;;;;;;;;;15.30;99.90;;;;;;5128206;27;20315;-85
2021/07/31 06:12:00;;;;;;;;;;;15.30;99.90;;;;;;5127171;27;19985;-86
2021/07/31 06:14:26;;;;;;;;;;;15.30;99.90;;;;;;5127947;27;20362;-86
2021/07/31 06:16:52;;;;;;;;;;;15.30;99.90;;;;;;5127259;27;19923;-85
2021/07/31 06:19:18;;;;;;;;;;;15.40;99.90;;;;;;5110256;27;19920;-86
2021/07/31 06:21:43;;;;;;;;;;;15.30;99.90;;;;;;5126753;27;20573;-86
2021/07/31 06:24:09;;;;;;;;;;;15.30;99.90;;;;;;5127063;27;20018;-86
2021/07/31 06:26:35;;;;;;;;;;;15.30;99.90;;;;;;5110632;27;19980;-86
2021/07/31 06:29:01;;;;;;;;;;;15.30;99.90;;;;;;5127153;27;20367;-86
2021/07/31 06:31:27;;;;;;;;;;;15.30;99.90;;;;;;5126915;27;19927;-86
2021/07/31 06:33:52;;;;;;;;;;;15.30;99.90;;;;;;5127238;27;19920;-86
2021/07/31 06:36:19;;;;;;;;;;;15.50;99.90;;;;;;5110093;27;19972;-85
2021/07/31 06:38:45;;;;;;;;;;;15.40;99.90;;;;;;5126812;27;19980;-85
2021/07/31 06:41:10;;;;;;;;;;;15.40;99.90;;;;;;5126711;27;20409;-85
2021/07/31 06:43:36;;;;;;;;;;;15.40;99.90;;;;;;5126871;27;19920;-86
2021/07/31 06:46:09;;;;;;;;;;;15.50;99.90;;;;;;5127158;27;19980;-86
2021/07/31 06:48:34;;;;;;;;;;;15.40;99.90;;;;;;5126760;27;19962;-86
2021/07/31 06:51:01;;;;;;;;;;;15.30;99.90;;;;;;5129824;27;20014;-85
2021/07/31 06:53:26;;;;;;;;;;;15.30;99.90;;;;;;5123018;27;19926;-85
2021/07/31 06:55:52;;;;;;;;;;;15.40;99.90;;;;;;5109994;27;19924;-84
2021/07/31 06:58:18;;;;;;;;;;;15.30;99.90;;;;;;5126296;27;19968;-85
2021/07/31 07:00:44;;;;;;;;;;;15.10;99.90;;;;;;5126020;27;19946;-85
2021/07/31 07:03:09;;;;;;;;;;;15.10;99.90;;;;;;5126048;27;20390;-85
2021/07/31 07:05:35;;;;;;;;;;;15.10;99.90;;;;;;5108603;27;20370;-85
2021/07/31 07:08:01;;;;;;;;;;;15.20;99.90;;;;;;5109260;27;20394;-85
2021/07/31 07:10:26;;;;;;;;;;;15.30;99.90;;;;;;5126804;27;19963;-85
2021/07/31 07:12:52;;;;;;;;;;;15.30;99.90;;;;;;5115927;27;19958;-86
2021/07/31 07:15:17;;;;;;;;;;;15.20;99.90;;;;;;5109479;27;19975;-86
2021/07/31 07:17:43;;;;;;;;;;;15.50;99.90;;;;;;5126252;27;19954;-86
2021/07/31 07:20:09;;;;;;;;;;;15.50;99.90;;;;;;5127936;27;20341;-86
2021/07/31 07:22:34;;;;;;;;;;;15.40;99.90;;;;;;5108713;27;20469;-86
2021/07/31 07:25:00;;;;;;;;;;;15.40;99.90;;;;;;5126940;27;19919;-87
2021/07/31 07:27:26;;;;;;;;;;;15.60;99.90;;;;;;5109142;27;20031;-86
2021/07/31 07:29:51;;;;;;;;;;;15.90;99.90;;;;;;5143406;27;19923;-86
2021/07/31 07:32:17;;;;;;;;;;;15.80;99.90;;;;;;5107806;27;19931;-86
2021/07/31 07:34:43;;;;;;;;;;;15.70;99.90;;;;;;5109103;27;19930;-86
2021/07/31 07:37:08;;;;;;;;;;;15.70;99.90;;;;;;5126336;27;19915;-86
2021/07/31 07:39:34;;;;;;;;;;;15.80;99.90;;;;;;5143222;27;19972;-86
2021/07/31 07:42:01;;;;;;;;;;;15.80;99.90;;;;;;5143139;27;19965;-87
2021/07/31 07:44:27;;;;;;;;;;;15.70;99.90;;;;;;5126613;27;19931;-86
2021/07/31 07:46:53;;;;;;;;;;;15.60;99.90;;;;;;5144236;27;19951;-86
2021/07/31 07:49:18;;;;;;;;;;;15.60;99.90;;;;;;5129213;27;19926;-86
2021/07/31 07:51:44;;;;;;;;;;;15.40;99.90;;;;;;5128755;27;19962;-87
2021/07/31 07:54:09;;;;;;;;;;;15.40;99.90;;;;;;5128358;27;20298;-87
2021/07/31 07:56:35;;;;;;;;;;;15.50;99.90;;;;;;5146660;27;20401;-87
2021/07/31 07:59:01;;;;;;;;;;;15.60;99.90;;;;;;5132858;27;20374;-86
2021/07/31 08:01:29;;;;;;;;;;;15.80;99.90;;;;;;5126345;27;19938;-86
2021/07/31 08:03:55;;;;;;;;;;;15.80;99.90;;;;;;5145211;27;19950;-87
2021/07/31 08:06:21;;;;;;;;;;;15.80;99.90;;;;;;5125785;27;20013;-86
2021/07/31 08:08:47;;;;;;;;;;;15.60;99.90;;;;;;5126874;27;20362;-87
2021/07/31 08:11:12;;;;;;;;;;;15.70;99.90;;;;;;5136013;27;19934;-87
2021/07/31 08:13:38;;;;;;;;;;;15.70;99.90;;;;;;5132931;27;19930;-89
2021/07/31 08:16:04;;;;;;;;;;;15.80;99.90;;;;;;5137385;27;19923;-88
2021/07/31 08:18:30;;;;;;;;;;;16.00;99.90;;;;;;5124504;27;19922;-87
2021/07/31 08:20:55;;;;;;;;;;;16.20;99.90;;;;;;5120470;27;19955;-87
2021/07/31 08:23:21;;;;;;;;;;;16.20;99.90;;;;;;5138102;27;19950;-87
2021/07/31 08:25:47;;;;;;;;;;;16.00;99.90;;;;;;5137909;27;19961;-86
2021/07/31 08:28:13;;;;;;;;;;;16.20;99.90;;;;;;5121843;27;19923;-86
2021/07/31 08:30:38;;;;;;;;;;;16.40;99.90;;;;;;5155969;27;20230;-87
2021/07/31 08:33:04;;;;;;;;;;;16.30;99.90;;;;;;5137532;27;20098;-89
2021/07/31 08:35:29;;;;;;;;;;;16.30;99.90;;;;;;5157604;27;20370;-88
2021/07/31 08:37:55;;;;;;;;;;;16.20;99.90;;;;;;5140253;27;19922;-88
2021/07/31 08:40:24;;;;;;;;;;;16.30;99.90;;;;;;5153408;27;19920;-88
2021/07/31 08:42:50;;;;;;;;;;;16.20;99.90;;;;;;5136684;27;20321;-92
2021/07/31 08:45:17;;;;;;;;;;;16.20;99.90;;;;;;5125425;27;20415;-88
2021/07/31 08:47:44;;;;;;;;;;;16.20;99.90;;;;;;5133658;27;20448;-89
2021/07/31 08:50:11;;;;;;;;;;;16.20;99.90;;;;;;5148699;27;19930;-88
2021/07/31 08:52:37;;;;;;;;;;;16.10;99.90;;;;;;5135357;27;19919;-88
2021/07/31 08:55:03;;;;;;;;;;;16.10;99.90;;;;;;5130676;27;20393;-88
2021/07/31 08:57:29;;;;;;;;;;;15.90;99.90;;;;;;5140302;27;19919;-88
2021/07/31 08:59:55;;;;;;;;;;;15.90;99.90;;;;;;5148555;27;19922;-89
2021/07/31 09:02:21;;;;;;;;;;;16.10;99.90;;;;;;5141308;27;19927;-88
2021/07/31 09:04:48;;;;;;;;;;;16.10;99.90;;;;;;5128432;27;20386;-87
2021/07/31 09:07:15;;;;;;;;;;;16.20;99.90;;;;;;5126997;27;19930;-87
2021/07/31 09:09:41;;;;;;;;;;;16.40;99.90;;;;;;5127936;27;19949;-85
2021/07/31 09:12:07;;;;;;;;;;;16.10;99.90;;;;;;5127148;27;20397;-85
2021/07/31 09:14:34;;;;;;;;;;;16.10;99.90;;;;;;5127862;27;19997;-85
2021/07/31 09:16:59;;;;;;;;;;;16.00;99.90;;;;;;5143736;27;19930;-86
2021/07/31 09:19:27;;;;;;;;;;;16.20;99.90;;;;;;5135778;27;20401;-86
2021/07/31 09:22:13;;;;;;;;;;;16.10;99.90;;;;;;5128488;27;19946;-86
2021/07/31 09:24:39;;;;;;;;;;;16.10;99.90;;;;;;5162212;27;19970;-86
2021/07/31 09:27:22;;;;;;;;;;;16.20;99.90;;;;;;5132091;27;19957;-87
2021/07/31 09:29:57;;;;;;;;;;;16.50;99.90;;;;;;5137097;27;20430;-87
2021/07/31 09:32:34;;;;;;;;;;;16.40;99.90;;;;;;5144167;27;19930;-87
2021/07/31 09:35:00;;;;;;;;;;;16.30;99.90;;;;;;5127955;27;19950;-87
2021/07/31 09:37:27;;;;;;;;;;;16.30;99.90;;;;;;5093448;27;20433;-87
2021/07/31 09:40:00;;;;;;;;;;;16.50;99.90;;;;;;5127664;27;19919;-87
2021/07/31 09:42:37;;;;;;;;;;;16.30;99.90;;;;;;5127570;27;19923;-86
2021/07/31 09:45:07;;;;;;;;;;;16.40;99.90;;;;;;5128012;27;20347;-87
2021/07/31 09:47:33;;;;;;;;;;;16.50;99.90;;;;;;5145677;27;19927;-87
2021/07/31 09:49:59;;;;;;;;;;;16.40;99.90;;;;;;5127109;27;20033;-87
2021/07/31 09:52:25;;;;;;;;;;;16.40;99.90;;;;;;5140119;27;19922;-88
2021/07/31 09:54:51;;;;;;;;;;;16.50;99.90;;;;;;5149185;27;20218;-87
2021/07/31 09:57:17;;;;;;;;;;;16.60;99.90;;;;;;5170366;27;19923;-87
2021/07/31 09:59:44;;;;;;;;;;;16.50;99.90;;;;;;5152224;27;19926;-87
2021/07/31 10:02:14;;;;;;;;;;;16.50;99.90;;;;;;5151834;27;20397;-87
2021/07/31 10:04:40;;;;;;;;;;;16.70;99.90;;;;;;5152243;27;20381;-87
2021/07/31 10:07:06;;;;;;;;;;;16.70;99.90;;;;;;5151654;27;19925;-88
2021/07/31 10:09:32;;;;;;;;;;;16.70;99.90;;;;;;5152144;27;19923;-87
2021/07/31 10:11:58;;;;;;;;;;;16.60;99.90;;;;;;5134272;27;20066;-87
2021/07/31 10:14:24;;;;;;;;;;;16.50;99.90;;;;;;5134857;27;19919;-87
2021/07/31 10:16:51;;;;;;;;;;;16.50;99.90;;;;;;5133980;27;20391;-87
2021/07/31 10:19:17;;;;;;;;;;;16.60;99.90;;;;;;5169894;27;19961;-87
2021/07/31 10:21:58;;;;;;;;;;;16.50;99.90;;;;;;5151851;27;19927;-87
2021/07/31 10:24:24;;;;;;;;;;;16.40;99.90;;;;;;5170477;27;19965;-87
2021/07/31 10:27:09;;;;;;;;;;;16.30;99.90;;;;;;5151974;27;19962;-86
2021/07/31 10:29:34;;;;;;;;;;;16.40;99.90;;;;;;5151053;27;19927;-87
2021/07/31 10:32:32;;;;;;;;;;;16.50;99.90;;;;;;5170445;27;19930;-87
2021/07/31 10:35:01;;;;;;;;;;;16.50;99.90;;;;;;5151234;27;20009;-87
2021/07/31 10:37:30;;;;;;;;;;;16.60;99.90;;;;;;5148264;27;20435;-87
2021/07/31 10:39:57;;;;;;;;;;;16.50;99.90;;;;;;5154761;27;19925;-88
2021/07/31 10:42:23;;;;;;;;;;;16.50;99.90;;;;;;5145479;27;19927;-87
2021/07/31 10:45:18;;;;;;;;;;;16.40;99.90;;;;;;5148773;27;19930;-88
2021/07/31 10:47:47;;;;;;;;;;;16.50;99.90;;;;;;5130481;27;19979;-87
2021/07/31 10:50:22;;;;;;;;;;;16.60;99.90;;;;;;5112294;27;20361;-87
2021/07/31 10:52:54;;;;;;;;;;;16.60;99.90;;;;;;5130230;27;19923;-87
2021/07/31 10:55:20;;;;;;;;;;;16.50;99.90;;;;;;5130523;27;20010;-87
2021/07/31 10:58:06;;;;;;;;;;;16.40;99.90;;;;;;5129986;27;19955;-87
2021/07/31 11:00:37;;;;;;;;;;;16.40;99.90;;;;;;5148125;27;19963;-87
2021/07/31 11:03:04;;;;;;;;;;;16.40;99.90;;;;;;5130559;27;20339;-88
2021/07/31 11:05:54;;;;;;;;;;;16.60;99.90;;;;;;5148999;27;19927;-87
2021/07/31 11:08:20;;;;;;;;;;;16.60;99.90;;;;;;5148933;27;20052;-87
2021/07/31 11:10:46;;;;;;;;;;;16.70;99.90;;;;;;5129153;27;20025;-87
2021/07/31 11:13:12;;;;;;;;;;;16.90;99.90;;;;;;5130115;27;20052;-88
2021/07/31 11:15:56;;;;;;;;;;;17.00;99.90;;;;;;5129964;27;20445;-87
2021/07/31 11:18:22;;;;;;;;;;;16.80;99.90;;;;;;5130064;27;19926;-87
2021/07/31 11:20:48;;;;;;;;;;;16.80;99.90;;;;;;5129294;27;19923;-87
2021/07/31 11:23:14;;;;;;;;;;;17.00;99.90;;;;;;5129969;27;19926;-87
2021/07/31 11:25:41;;;;;;;;;;;17.00;99.90;;;;;;5148207;27;20446;-87
2021/07/31 11:28:09;;;;;;;;;;;16.90;99.90;;;;;;5129490;27;20365;-87
2021/07/31 11:30:46;;;;;;;;;;;16.90;99.90;;;;;;5128685;27;20297;-87
2021/07/31 11:33:16;;;;;;;;;;;16.80;99.90;;;;;;5148240;27;19951;-87
2021/07/31 11:35:41;;;;;;;;;;;16.80;99.90;;;;;;5129789;27;20213;-87
2021/07/31 11:38:25;;;;;;;;;;;16.80;99.90;;;;;;5111752;27;20385;-88
2021/07/31 11:41:00;;;;;;;;;;;16.70;99.90;;;;;;5146362;27;19923;-87
2021/07/31 11:43:26;;;;;;;;;;;16.70;99.90;;;;;;5146408;27;19926;-87
2021/07/31 11:45:52;;;;;;;;;;;16.60;99.90;;;;;;5129498;27;19919;-87
2021/07/31 11:48:18;;;;;;;;;;;16.60;99.90;;;;;;5129048;27;19976;-87
2021/07/31 11:51:03;;;;;;;;;;;16.70;99.90;;;;;;5128581;27;19927;-87
2021/07/31 11:53:29;;;;;;;;;;;16.60;99.90;;;;;;5112345;27;20298;-87
2021/07/31 11:56:08;;;;;;;;;;;16.60;99.90;;;;;;5129112;27;20494;-87
2021/07/31 11:58:34;;;;;;;;;;;16.80;99.90;;;;;;5147330;27;20356;-87
2021/07/31 12:01:00;;;;;;;;;;;17.00;99.90;;;;;;5111083;27;20332;-87
2021/07/31 12:03:42;;;;;;;;;;;17.10;99.90;;;;;;5111896;27;19945;-87
2021/07/31 12:06:27;;;;;;;;;;;16.90;99.90;;;;;;5143826;27;19927;-86
2021/07/31 12:08:52;;;;;;;;;;;16.70;99.90;;;;;;5130579;27;20015;-87
2021/07/31 12:11:29;;;;;;;;;;;16.60;99.90;;;;;;5128182;27;19976;-87
2021/07/31 12:13:55;;;;;;;;;;;16.60;99.90;;;;;;5128849;27;20199;-87
2021/07/31 12:16:30;;;;;;;;;;;16.60;99.90;;;;;;5128705;27;19923;-87
2021/07/31 12:18:55;;;;;;;;;;;16.80;99.90;;;;;;5128282;27;20394;-86
2021/07/31 12:21:25;;;;;;;;;;;17.00;99.90;;;;;;5128573;27;19922;-86
2021/07/31 12:23:50;;;;;;;;;;;17.00;99.90;;;;;;5147165;27;20017;-86
2021/07/31 12:26:26;;;;;;;;;;;16.80;99.90;;;;;;5128274;27;20500;-86
2021/07/31 12:28:54;;;;;;;;;;;16.70;99.90;;;;;;5128718;27;19919;-85
2021/07/31 12:31:21;;;;;;;;;;;16.70;99.90;;;;;;5111357;27;19926;-87
2021/07/31 12:33:46;;;;;;;;;;;16.60;99.90;;;;;;5146278;27;20305;-87
2021/07/31 12:36:12;;;;;;;;;;;16.60;99.90;;;;;;5150019;27;19934;-87
2021/07/31 12:38:39;;;;;;;;;;;16.50;99.90;;;;;;5128539;27;19954;-88
2021/07/31 12:41:05;;;;;;;;;;;16.50;99.90;;;;;;5147472;27;19923;-88
2021/07/31 12:43:31;;;;;;;;;;;16.50;99.90;;;;;;5127700;27;19915;-88
2021/07/31 12:45:58;;;;;;;;;;;16.70;99.90;;;;;;5128452;27;19927;-87
2021/07/31 12:48:24;;;;;;;;;;;16.60;99.90;;;;;;5111165;27;19927;-87
2021/07/31 12:50:49;;;;;;;;;;;16.70;99.90;;;;;;5146876;27;19954;-86
2021/07/31 12:53:16;;;;;;;;;;;16.80;99.90;;;;;;5147473;27;20285;-86
2021/07/31 12:55:42;;;;;;;;;;;16.90;99.90;;;;;;5149046;27;19925;-86
2021/07/31 12:58:08;;;;;;;;;;;16.80;99.90;;;;;;5148884;27;19948;-87
2021/07/31 13:00:34;;;;;;;;;;;16.80;99.90;;;;;;5132215;27;19930;-90
2021/07/31 13:03:00;;;;;;;;;;;16.70;99.90;;;;;;5131949;27;20377;-87
2021/07/31 13:05:27;;;;;;;;;;;16.70;99.90;;;;;;5149138;27;19923;-87
2021/07/31 13:07:54;;;;;;;;;;;16.70;99.90;;;;;;5167868;27;19926;-86
2021/07/31 13:10:24;;;;;;;;;;;16.60;99.90;;;;;;5148859;27;19918;-87
2021/07/31 13:12:49;;;;;;;;;;;16.40;99.90;;;;;;5120884;27;20440;-87
2021/07/31 13:15:15;;;;;;;;;;;16.50;99.90;;;;;;5110693;27;19923;-86
2021/07/31 13:17:41;;;;;;;;;;;16.50;99.90;;;;;;5093983;27;19921;-86
2021/07/31 13:20:08;;;;;;;;;;;16.50;99.90;;;;;;5128201;27;19919;-85
2021/07/31 13:22:33;;;;;;;;;;;16.60;99.90;;;;;;5128341;27;19919;-86
2021/07/31 13:24:59;;;;;;;;;;;16.70;99.90;;;;;;5120988;27;19923;-86
2021/07/31 13:27:25;;;;;;;;;;;16.50;99.90;;;;;;5136959;27;19918;-86
2021/07/31 13:29:51;;;;;;;;;;;16.60;99.90;;;;;;5148934;27;19923;-86
2021/07/31 13:32:17;;;;;;;;;;;16.70;99.90;;;;;;5139670;27;19930;-86
2021/07/31 13:34:43;;;;;;;;;;;16.80;99.90;;;;;;5131283;27;19927;-86
2021/07/31 13:37:17;;;;;;;;;;;16.80;99.90;;;;;;5132317;27;19923;-86
2021/07/31 13:39:44;;;;;;;;;;;16.90;99.90;;;;;;5131870;27;19927;-86
2021/07/31 13:42:11;;;;;;;;;;;16.90;99.90;;;;;;5132123;27;19919;-85
2021/07/31 13:44:37;;;;;;;;;;;16.80;99.90;;;;;;5114265;27;20308;-86
2021/07/31 13:47:02;;;;;;;;;;;16.80;99.90;;;;;;5131496;27;20005;-86
2021/07/31 13:49:28;;;;;;;;;;;16.80;99.90;;;;;;5114471;27;20270;-86
2021/07/31 13:51:55;;;;;;;;;;;16.80;99.90;;;;;;5122766;27;20011;-86
2021/07/31 13:54:20;;;;;;;;;;;16.80;99.90;;;;;;5114418;27;19999;-85
2021/07/31 13:56:46;;;;;;;;;;;16.70;99.90;;;;;;5114247;27;19935;-86
2021/07/31 13:59:12;;;;;;;;;;;16.80;99.90;;;;;;5131411;27;19919;-85
2021/07/31 14:01:38;;;;;;;;;;;16.70;99.90;;;;;;5131575;27;19929;-86
2021/07/31 14:04:04;;;;;;;;;;;16.80;99.90;;;;;;5149598;27;19923;-86
2021/07/31 14:06:30;;;;;;;;;;;16.90;99.90;;;;;;5131243;27;19954;-86
2021/07/31 14:08:56;;;;;;;;;;;17.10;99.90;;;;;;5114019;27;19923;-86
2021/07/31 14:11:22;;;;;;;;;;;17.10;99.90;;;;;;5131114;27;20556;-86
2021/07/31 14:13:47;;;;;;;;;;;17.00;99.90;;;;;;5150159;27;20291;-86
2021/07/31 14:16:13;;;;;;;;;;;17.00;99.90;;;;;;5151245;27;19929;-86